Time;durP1;ratioP1;P1;durP2;ratioP2;P2;SDS_P1;SDS_P2;PMS_P1;PMS_P2;Temp;Humidity;BMP_temperature;BMP_pressure;BME280_temperature;BME280_humidity;BME280_pressure;Samples;Min_cycle;Max_cycle;Signal;HPM_P1;HPM_P2
2021/08/03 00:00:51;;;;;;;2.33;1.17;;;;;;;;;;334559;158;857706;-62
2021/08/03 00:01:52;;;;;;;2.27;1.31;;;;;;;;;;332994;158;864940;-62
2021/08/03 00:02:55;;;;;;;4.04;1.30;;;;;;;;;;336696;158;857712;-62
2021/08/03 00:03:59;;;;;;;2.69;1.09;;;;;;;;;;336347;158;857336;-62
2021/08/03 00:05:00;;;;;;;1.76;1.23;;;;;;;;;;332722;158;864557;-63
2021/08/03 00:06:04;;;;;;;5.08;1.49;;;;;;;;;;333036;159;859850;-63
2021/08/03 00:07:05;;;;;;;2.00;1.25;;;;;;;;;;330975;158;864378;-63
2021/08/03 00:08:12;;;;;;;3.59;1.19;;;;;;;;;;335252;158;858886;-63
2021/08/03 00:09:13;;;;;;;7.11;1.49;;;;;;;;;;335093;158;858381;-63
2021/08/03 00:10:18;;;;;;;2.70;1.34;;;;;;;;;;334830;158;857323;-63
2021/08/03 00:11:20;;;;;;;2.74;1.32;;;;;;;;;;336760;158;858790;-63
2021/08/03 00:12:21;;;;;;;3.28;1.41;;;;;;;;;;328579;161;860339;-63
2021/08/03 00:13:25;;;;;;;2.74;1.28;;;;;;;;;;327583;163;864849;-62
2021/08/03 00:14:26;;;;;;;3.31;1.71;;;;;;;;;;324020;163;866791;-63
2021/08/03 00:15:28;;;;;;;1.51;1.30;;;;;;;;;;333154;161;857315;-62
2021/08/03 00:16:32;;;;;;;4.07;1.37;;;;;;;;;;329300;161;857249;-63
2021/08/03 00:17:33;;;;;;;2.24;1.22;;;;;;;;;;327400;162;857426;-63
2021/08/03 00:18:36;;;;;;;4.43;1.10;;;;;;;;;;319307;164;857607;-63
2021/08/03 00:19:38;;;;;;;2.61;1.09;;;;;;;;;;320812;164;859574;-63
2021/08/03 00:20:41;;;;;;;2.67;1.15;;;;;;;;;;322437;164;859183;-62
2021/08/03 00:21:43;;;;;;;1.86;1.33;;;;;;;;;;325441;162;858286;-62
2021/08/03 00:22:45;;;;;;;1.69;1.24;;;;;;;;;;324774;161;859505;-63
2021/08/03 00:23:46;;;;;;;2.25;1.09;;;;;;;;;;335032;158;859596;-63
2021/08/03 00:24:48;;;;;;;2.83;1.41;;;;;;;;;;333070;159;859562;-62
2021/08/03 00:25:51;;;;;;;2.75;1.19;;;;;;;;;;328627;161;858692;-63
2021/08/03 00:26:54;;;;;;;3.04;1.33;;;;;;;;;;323340;162;860002;-63
2021/08/03 00:27:56;;;;;;;4.33;1.11;;;;;;;;;;327597;162;866692;-62
2021/08/03 00:28:57;;;;;;;2.83;1.06;;;;;;;;;;327092;163;866509;-63
2021/08/03 00:29:59;;;;;;;2.11;1.16;;;;;;;;;;319519;164;860531;-63
2021/08/03 00:31:00;;;;;;;2.10;1.04;;;;;;;;;;327847;162;865455;-63
2021/08/03 00:32:03;;;;;;;1.36;1.06;;;;;;;;;;327071;162;866166;-63
2021/08/03 00:33:05;;;;;;;4.09;1.00;;;;;;;;;;327248;161;859454;-63
2021/08/03 00:34:07;;;;;;;4.75;1.44;;;;;;;;;;327134;161;858543;-63
2021/08/03 00:35:08;;;;;;;2.84;1.17;;;;;;;;;;328383;161;859693;-62
2021/08/03 00:36:10;;;;;;;1.53;1.21;;;;;;;;;;326133;163;857297;-62
2021/08/03 00:37:12;;;;;;;1.66;1.24;;;;;;;;;;336866;156;857366;-62
2021/08/03 00:38:13;;;;;;;2.34;1.11;;;;;;;;;;338550;156;857379;-62
2021/08/03 00:39:15;;;;;;;2.52;1.09;;;;;;;;;;344535;156;858909;-62
2021/08/03 00:40:17;;;;;;;2.63;1.16;;;;;;;;;;338713;156;858750;-61
2021/08/03 00:41:20;;;;;;;2.00;1.34;;;;;;;;;;335389;156;859064;-61
2021/08/03 00:42:21;;;;;;;1.69;1.27;;;;;;;;;;338545;156;866045;-61
2021/08/03 00:43:23;;;;;;;1.35;1.11;;;;;;;;;;340203;156;866397;-61
2021/08/03 00:44:39;;;;;;;5.11;1.59;;;;;;;;;;342307;156;859183;-60
2021/08/03 00:45:40;;;;;;;3.16;1.41;;;;;;;;;;337094;156;858786;-63
2021/08/03 00:46:44;;;;;;;3.37;1.40;;;;;;;;;;338136;156;859004;-63
2021/08/03 00:47:46;;;;;;;1.48;1.12;;;;;;;;;;332545;159;857986;-63
2021/08/03 00:48:48;;;;;;;3.49;1.31;;;;;;;;;;336559;156;858470;-61
2021/08/03 00:49:49;;;;;;;1.61;0.94;;;;;;;;;;337902;156;864830;-61
2021/08/03 00:50:51;;;;;;;1.62;1.34;;;;;;;;;;338159;159;857289;-62
2021/08/03 00:51:53;;;;;;;4.40;1.15;;;;;;;;;;338624;156;864786;-62
2021/08/03 00:52:54;;;;;;;4.01;1.20;;;;;;;;;;338648;156;857427;-62
2021/08/03 00:53:56;;;;;;;1.81;1.39;;;;;;;;;;337842;158;857320;-62
2021/08/03 00:54:57;;;;;;;2.10;1.38;;;;;;;;;;338077;159;857364;-62
2021/08/03 00:55:59;;;;;;;1.96;1.39;;;;;;;;;;338162;158;857256;-62
2021/08/03 00:57:00;;;;;;;2.23;1.31;;;;;;;;;;338133;157;859446;-62
2021/08/03 00:58:02;;;;;;;1.89;1.35;;;;;;;;;;339455;156;866024;-62
2021/08/03 00:59:04;;;;;;;3.49;1.72;;;;;;;;;;338911;156;858724;-62
2021/08/03 01:00:07;;;;;;;4.61;1.28;;;;;;;;;;338650;156;859372;-62
2021/08/03 01:01:08;;;;;;;3.43;1.42;;;;;;;;;;337881;156;858999;-62
2021/08/03 01:02:10;;;;;;;3.46;1.82;;;;;;;;;;338550;156;859830;-62
2021/08/03 01:03:11;;;;;;;1.46;1.19;;;;;;;;;;337044;156;857275;-62
2021/08/03 01:04:14;;;;;;;2.65;1.51;;;;;;;;;;338312;156;864840;-62
2021/08/03 01:05:16;;;;;;;3.08;1.58;;;;;;;;;;338408;156;857408;-62
2021/08/03 01:06:29;;;;;;;3.34;1.27;;;;;;;;;;338638;156;858396;-62
2021/08/03 01:07:36;;;;;;;1.85;1.33;;;;;;;;;;338485;156;858191;-62
2021/08/03 01:08:58;;;;;;;5.36;1.40;;;;;;;;;;338108;156;857311;-62
2021/08/03 01:10:01;;;;;;;1.30;1.19;;;;;;;;;;341273;154;857263;-62
2021/08/03 01:11:04;;;;;;;2.02;1.27;;;;;;;;;;339278;156;857238;-62
2021/08/03 01:12:09;;;;;;;1.48;1.29;;;;;;;;;;338409;156;858408;-62
2021/08/03 01:13:13;;;;;;;2.65;1.23;;;;;;;;;;338144;159;857246;-62
2021/08/03 01:14:16;;;;;;;2.02;1.25;;;;;;;;;;338924;156;865000;-62
2021/08/03 01:15:19;;;;;;;1.88;1.37;;;;;;;;;;337599;156;857249;-62
2021/08/03 01:16:26;;;;;;;1.32;1.22;;;;;;;;;;333282;159;860427;-62
2021/08/03 01:17:42;;;;;;;4.12;1.24;;;;;;;;;;338759;156;868100;-62
2021/08/03 01:18:51;;;;;;;1.67;1.28;;;;;;;;;;337945;156;857382;-62
2021/08/03 01:20:12;;;;;;;2.09;1.40;;;;;;;;;;343037;156;858039;-62
2021/08/03 01:21:21;;;;;;;2.00;1.68;;;;;;;;;;341160;156;857318;-62
2021/08/03 01:22:25;;;;;;;2.27;2.00;;;;;;;;;;336823;156;857889;-62
2021/08/03 01:23:35;;;;;;;2.44;1.74;;;;;;;;;;329439;160;857249;-62
2021/08/03 01:24:41;;;;;;;2.12;1.69;;;;;;;;;;337753;156;857925;-62
2021/08/03 01:25:53;;;;;;;4.83;1.72;;;;;;;;;;338654;156;857387;-62
2021/08/03 01:26:57;;;;;;;3.03;1.57;;;;;;;;;;336104;156;858900;-62
2021/08/03 01:28:03;;;;;;;2.49;1.37;;;;;;;;;;342165;156;857217;-62
2021/08/03 01:29:06;;;;;;;1.83;1.63;;;;;;;;;;338393;156;857193;-63
2021/08/03 01:30:08;;;;;;;2.66;1.49;;;;;;;;;;337654;158;857305;-62
2021/08/03 01:31:12;;;;;;;7.28;1.62;;;;;;;;;;342499;156;864882;-63
2021/08/03 01:32:14;;;;;;;2.68;1.73;;;;;;;;;;337614;156;857367;-62
2021/08/03 01:33:17;;;;;;;2.19;1.56;;;;;;;;;;338158;156;859072;-62
2021/08/03 01:34:19;;;;;;;1.92;1.75;;;;;;;;;;338528;156;857275;-62
2021/08/03 01:35:21;;;;;;;2.03;1.58;;;;;;;;;;344269;156;858644;-62
2021/08/03 01:36:23;;;;;;;2.46;1.75;;;;;;;;;;338350;156;857186;-62
2021/08/03 01:37:26;;;;;;;2.62;1.90;;;;;;;;;;335020;158;865441;-62
2021/08/03 01:38:28;;;;;;;4.37;1.91;;;;;;;;;;341050;158;857301;-61
2021/08/03 01:39:40;;;;;;;6.05;2.08;;;;;;;;;;337770;158;857323;-62
2021/08/03 01:40:43;;;;;;;3.80;2.07;;;;;;;;;;333921;158;857884;-62
2021/08/03 01:41:45;;;;;;;2.65;1.79;;;;;;;;;;336778;158;857117;-61
2021/08/03 01:42:47;;;;;;;2.41;1.65;;;;;;;;;;335330;158;857296;-62
2021/08/03 01:43:48;;;;;;;3.39;1.35;;;;;;;;;;333833;158;857200;-62
2021/08/03 01:44:50;;;;;;;4.93;1.80;;;;;;;;;;334908;158;857307;-62
2021/08/03 01:45:53;;;;;;;2.04;1.53;;;;;;;;;;335481;158;866433;-62
2021/08/03 01:46:55;;;;;;;1.87;1.71;;;;;;;;;;335275;158;859026;-62
2021/08/03 01:47:56;;;;;;;4.98;1.56;;;;;;;;;;332733;159;857319;-62
2021/08/03 01:48:58;;;;;;;4.57;1.71;;;;;;;;;;335387;157;864605;-62
2021/08/03 01:50:00;;;;;;;3.48;1.87;;;;;;;;;;336354;157;858572;-62
2021/08/03 01:51:01;;;;;;;1.89;1.49;;;;;;;;;;334076;157;857870;-62
2021/08/03 01:52:05;;;;;;;2.23;1.60;;;;;;;;;;338200;157;857316;-62
2021/08/03 01:53:06;;;;;;;3.31;1.39;;;;;;;;;;336098;157;859568;-62
2021/08/03 01:54:08;;;;;;;3.49;1.86;;;;;;;;;;335363;158;857541;-62
2021/08/03 01:55:09;;;;;;;2.13;1.71;;;;;;;;;;334195;159;857425;-62
2021/08/03 01:56:12;;;;;;;3.67;2.10;;;;;;;;;;340865;157;857136;-62
2021/08/03 01:57:15;;;;;;;4.81;1.85;;;;;;;;;;340058;157;857502;-62
2021/08/03 01:58:16;;;;;;;4.29;2.20;;;;;;;;;;334462;157;864801;-62
2021/08/03 01:59:18;;;;;;;6.97;2.49;;;;;;;;;;332415;157;857479;-62
2021/08/03 02:00:20;;;;;;;3.37;1.69;;;;;;;;;;337722;157;857805;-62
2021/08/03 02:01:21;;;;;;;3.49;1.64;;;;;;;;;;337835;157;857796;-62
2021/08/03 02:02:23;;;;;;;4.13;2.06;;;;;;;;;;334834;157;858106;-61
2021/08/03 02:03:25;;;;;;;5.95;1.90;;;;;;;;;;337191;157;857393;-62
2021/08/03 02:04:27;;;;;;;5.42;1.77;;;;;;;;;;336700;157;859769;-62
2021/08/03 02:05:29;;;;;;;4.81;1.89;;;;;;;;;;333742;159;858929;-61
2021/08/03 02:06:31;;;;;;;3.61;1.79;;;;;;;;;;334959;158;858972;-61
2021/08/03 02:07:33;;;;;;;3.01;1.61;;;;;;;;;;339595;157;859854;-62
2021/08/03 02:08:35;;;;;;;2.65;1.83;;;;;;;;;;336712;157;857366;-62
2021/08/03 02:09:37;;;;;;;1.95;1.42;;;;;;;;;;334152;158;864776;-62
2021/08/03 02:10:39;;;;;;;3.56;1.64;;;;;;;;;;338020;157;865266;-62
2021/08/03 02:11:40;;;;;;;2.29;1.80;;;;;;;;;;339082;157;864618;-62
2021/08/03 02:12:42;;;;;;;2.80;1.81;;;;;;;;;;335807;157;857227;-61
2021/08/03 02:13:44;;;;;;;2.02;1.60;;;;;;;;;;332631;157;857207;-61
2021/08/03 02:14:46;;;;;;;4.33;1.56;;;;;;;;;;336114;157;857336;-61
2021/08/03 02:15:47;;;;;;;3.25;1.97;;;;;;;;;;336680;157;857275;-61
2021/08/03 02:16:49;;;;;;;4.77;2.21;;;;;;;;;;333245;157;866389;-62
2021/08/03 02:17:51;;;;;;;3.54;1.82;;;;;;;;;;335524;157;858055;-62
2021/08/03 02:18:53;;;;;;;2.79;1.74;;;;;;;;;;339063;157;859511;-62
2021/08/03 02:19:54;;;;;;;3.94;1.75;;;;;;;;;;333928;157;857378;-62
2021/08/03 02:20:56;;;;;;;2.44;1.64;;;;;;;;;;334070;157;857373;-62
2021/08/03 02:21:57;;;;;;;1.92;1.71;;;;;;;;;;334472;160;865044;-62
2021/08/03 02:22:59;;;;;;;2.65;1.95;;;;;;;;;;334448;157;857308;-62
2021/08/03 02:24:00;;;;;;;1.75;1.42;;;;;;;;;;333184;157;857229;-62
2021/08/03 02:25:02;;;;;;;3.37;1.66;;;;;;;;;;336287;157;857156;-62
2021/08/03 02:26:04;;;;;;;2.70;1.69;;;;;;;;;;334348;159;857118;-62
2021/08/03 02:27:05;;;;;;;1.85;1.26;;;;;;;;;;334875;157;859018;-61
2021/08/03 02:28:07;;;;;;;2.09;1.43;;;;;;;;;;333660;158;858347;-62
2021/08/03 02:29:09;;;;;;;1.96;1.58;;;;;;;;;;340586;157;857436;-67
2021/08/03 02:30:11;;;;;;;3.99;1.80;;;;;;;;;;334538;157;857410;-69
2021/08/03 02:31:18;;;;;;;2.32;1.54;;;;;;;;;;334793;157;858716;-68
2021/08/03 02:32:24;;;;;;;2.29;1.67;;;;;;;;;;335176;157;859152;-68
2021/08/03 02:33:27;;;;;;;4.13;1.53;;;;;;;;;;332315;157;857404;-68
2021/08/03 02:34:29;;;;;;;2.91;1.64;;;;;;;;;;333462;159;857282;-68
2021/08/03 02:35:32;;;;;;;4.55;1.60;;;;;;;;;;337857;157;857317;-68
2021/08/03 02:36:38;;;;;;;3.36;1.55;;;;;;;;;;339421;157;864844;-66
2021/08/03 02:37:40;;;;;;;4.97;1.73;;;;;;;;;;333081;159;858274;-66
2021/08/03 02:38:43;;;;;;;3.83;1.46;;;;;;;;;;333915;158;857194;-66
2021/08/03 02:39:45;;;;;;;2.87;1.69;;;;;;;;;;335154;158;857355;-66
2021/08/03 02:40:48;;;;;;;2.79;1.42;;;;;;;;;;335103;158;857174;-66
2021/08/03 02:41:49;;;;;;;3.45;2.04;;;;;;;;;;334817;158;864892;-67
2021/08/03 02:42:51;;;;;;;2.13;1.59;;;;;;;;;;333968;159;857315;-67
2021/08/03 02:43:53;;;;;;;4.70;1.70;;;;;;;;;;335030;158;858929;-66
2021/08/03 02:44:56;;;;;;;2.36;1.54;;;;;;;;;;333791;160;865902;-67
2021/08/03 02:46:01;;;;;;;3.07;1.84;;;;;;;;;;334926;158;858896;-67
2021/08/03 02:47:09;;;;;;;2.20;1.61;;;;;;;;;;333989;158;857753;-68
2021/08/03 02:48:12;;;;;;;5.67;1.69;;;;;;;;;;333538;160;865724;-67
2021/08/03 02:49:17;;;;;;;3.71;1.66;;;;;;;;;;334601;158;858959;-67
2021/08/03 02:50:19;;;;;;;5.37;1.73;;;;;;;;;;334829;159;858993;-67
2021/08/03 02:51:21;;;;;;;3.04;1.85;;;;;;;;;;335155;160;857153;-67
2021/08/03 02:52:24;;;;;;;3.39;1.95;;;;;;;;;;328332;161;858944;-66
2021/08/03 02:53:27;;;;;;;2.69;1.83;;;;;;;;;;322986;164;859981;-67
2021/08/03 02:54:30;;;;;;;2.21;1.49;;;;;;;;;;331206;161;857301;-66
2021/08/03 02:55:32;;;;;;;2.23;1.67;;;;;;;;;;333970;158;857356;-63
2021/08/03 02:56:34;;;;;;;2.57;2.02;;;;;;;;;;334439;158;857401;-66
2021/08/03 02:57:36;;;;;;;2.31;1.88;;;;;;;;;;335325;158;857848;-66
2021/08/03 02:58:39;;;;;;;1.87;1.67;;;;;;;;;;335036;160;858266;-67
2021/08/03 02:59:44;;;;;;;2.43;1.71;;;;;;;;;;334377;158;857358;-66
2021/08/03 03:00:48;;;;;;;1.65;1.53;;;;;;;;;;336063;158;864462;-66
2021/08/03 03:01:50;;;;;;;2.89;1.96;;;;;;;;;;338198;158;858880;-68
2021/08/03 03:02:51;;;;;;;3.60;1.69;;;;;;;;;;335860;158;857360;-66
2021/08/03 03:03:53;;;;;;;3.36;1.84;;;;;;;;;;331958;159;858931;-68
2021/08/03 03:05:02;;;;;;;3.81;1.81;;;;;;;;;;331576;160;858994;-67
2021/08/03 03:06:05;;;;;;;2.48;1.98;;;;;;;;;;330946;158;857926;-68
2021/08/03 03:07:14;;;;;;;2.50;1.51;;;;;;;;;;335968;158;860475;-66
2021/08/03 03:08:16;;;;;;;4.68;1.74;;;;;;;;;;334556;158;858387;-69
2021/08/03 03:09:19;;;;;;;4.34;1.78;;;;;;;;;;330393;158;860160;-68
2021/08/03 03:10:22;;;;;;;2.51;2.16;;;;;;;;;;333074;158;857297;-70
2021/08/03 03:11:26;;;;;;;5.10;2.61;;;;;;;;;;332873;158;857859;-67
2021/08/03 03:12:29;;;;;;;3.86;2.08;;;;;;;;;;337006;158;857939;-66
2021/08/03 03:13:32;;;;;;;4.15;2.34;;;;;;;;;;336654;158;858867;-68
2021/08/03 03:14:34;;;;;;;7.22;2.23;;;;;;;;;;335292;158;859021;-67
2021/08/03 03:15:36;;;;;;;2.98;2.02;;;;;;;;;;337749;158;857302;-69
2021/08/03 03:16:40;;;;;;;6.35;2.11;;;;;;;;;;337600;158;856550;-68
2021/08/03 03:17:42;;;;;;;4.39;2.16;;;;;;;;;;333980;158;858765;-69
2021/08/03 03:18:43;;;;;;;2.51;2.00;;;;;;;;;;336804;158;857738;-66
2021/08/03 03:19:45;;;;;;;3.98;2.04;;;;;;;;;;334473;158;859335;-68
2021/08/03 03:20:48;;;;;;;3.60;1.92;;;;;;;;;;333967;158;858947;-67
2021/08/03 03:21:50;;;;;;;5.01;2.03;;;;;;;;;;335573;158;857241;-68
2021/08/03 03:22:53;;;;;;;2.26;1.99;;;;;;;;;;340225;158;858902;-68
2021/08/03 03:23:54;;;;;;;3.48;2.03;;;;;;;;;;334332;158;864787;-71
2021/08/03 03:24:56;;;;;;;5.39;2.41;;;;;;;;;;333228;158;858629;-69
2021/08/03 03:25:58;;;;;;;4.68;1.87;;;;;;;;;;334410;158;865987;-70
2021/08/03 03:26:59;;;;;;;3.52;1.90;;;;;;;;;;334930;158;858955;-69
2021/08/03 03:28:02;;;;;;;4.76;2.09;;;;;;;;;;334619;159;857898;-69
2021/08/03 03:29:03;;;;;;;3.21;2.05;;;;;;;;;;331965;158;857221;-69
2021/08/03 03:30:07;;;;;;;4.17;2.14;;;;;;;;;;339132;158;859094;-69
2021/08/03 03:31:08;;;;;;;7.08;2.05;;;;;;;;;;334162;158;858874;-68
2021/08/03 03:32:10;;;;;;;3.40;2.20;;;;;;;;;;333619;158;859669;-65
2021/08/03 03:33:11;;;;;;;4.36;2.01;;;;;;;;;;336974;158;857321;-66
2021/08/03 03:34:13;;;;;;;11.29;2.24;;;;;;;;;;339403;158;857760;-67
2021/08/03 03:35:15;;;;;;;2.81;2.31;;;;;;;;;;334765;158;857367;-65
2021/08/03 03:36:18;;;;;;;2.98;2.11;;;;;;;;;;334829;158;859094;-65
2021/08/03 03:37:19;;;;;;;4.08;2.13;;;;;;;;;;335832;158;857250;-65
2021/08/03 03:38:21;;;;;;;2.43;2.07;;;;;;;;;;340652;156;857291;-64
2021/08/03 03:39:23;;;;;;;2.86;1.70;;;;;;;;;;339602;156;858960;-67
2021/08/03 03:40:25;;;;;;;4.87;1.96;;;;;;;;;;337269;156;860261;-64
2021/08/03 03:41:27;;;;;;;3.10;1.73;;;;;;;;;;339900;156;859779;-70
2021/08/03 03:42:32;;;;;;;3.79;2.27;;;;;;;;;;339895;156;858665;-68
2021/08/03 03:43:34;;;;;;;3.21;1.77;;;;;;;;;;339405;156;861137;-71
2021/08/03 03:44:35;;;;;;;3.37;2.14;;;;;;;;;;339577;156;859850;-70
2021/08/03 03:45:37;;;;;;;4.17;2.15;;;;;;;;;;338385;156;857517;-71
2021/08/03 03:46:41;;;;;;;5.32;1.98;;;;;;;;;;337935;156;857691;-70
2021/08/03 03:47:44;;;;;;;3.64;1.86;;;;;;;;;;338683;156;857858;-68
2021/08/03 03:48:53;;;;;;;2.04;1.80;;;;;;;;;;338141;156;859603;-70
2021/08/03 03:49:57;;;;;;;4.16;2.07;;;;;;;;;;338373;156;859551;-69
2021/08/03 03:51:01;;;;;;;3.62;1.71;;;;;;;;;;337004;159;857242;-68
2021/08/03 03:52:04;;;;;;;4.22;2.24;;;;;;;;;;338842;156;857354;-69
2021/08/03 03:53:09;;;;;;;6.41;2.70;;;;;;;;;;339648;156;858134;-65
2021/08/03 03:54:12;;;;;;;4.04;1.98;;;;;;;;;;341011;157;857829;-67
2021/08/03 03:55:15;;;;;;;3.21;1.77;;;;;;;;;;341110;156;858017;-66
2021/08/03 03:56:18;;;;;;;5.29;2.02;;;;;;;;;;337956;156;857148;-68
2021/08/03 03:57:21;;;;;;;4.14;1.87;;;;;;;;;;337928;156;858836;-68
2021/08/03 03:58:22;;;;;;;3.09;2.31;;;;;;;;;;339292;156;864742;-66
2021/08/03 03:59:24;;;;;;;3.94;2.00;;;;;;;;;;338410;156;864626;-66
2021/08/03 04:00:27;;;;;;;5.26;2.04;;;;;;;;;;337292;156;857509;-66
2021/08/03 04:01:29;;;;;;;3.89;1.79;;;;;;;;;;339767;156;857343;-65
2021/08/03 04:02:30;;;;;;;2.21;1.61;;;;;;;;;;340091;156;865049;-65
2021/08/03 04:03:33;;;;;;;1.99;1.79;;;;;;;;;;337491;156;857540;-67
2021/08/03 04:04:35;;;;;;;2.45;1.89;;;;;;;;;;337922;156;866896;-63
2021/08/03 04:05:37;;;;;;;3.29;2.01;;;;;;;;;;341268;156;858265;-66
2021/08/03 04:06:40;;;;;;;8.10;2.22;;;;;;;;;;338946;156;865305;-64
2021/08/03 04:07:49;;;;;;;3.52;1.90;;;;;;;;;;339132;156;858840;-64
2021/08/03 04:08:45;;;;;;;4.25;1.86;;;;;;;;;;336705;157;858941;-64
2021/08/03 04:09:47;;;;;;;5.00;1.69;;;;;;;;;;338978;157;857174;-65
2021/08/03 04:10:49;;;;;;;3.49;1.91;;;;;;;;;;338814;156;859120;-67
2021/08/03 04:11:51;;;;;;;3.03;1.81;;;;;;;;;;338046;156;859910;-65
2021/08/03 04:12:52;;;;;;;2.97;1.79;;;;;;;;;;338437;159;864464;-67
2021/08/03 04:13:54;;;;;;;5.03;2.05;;;;;;;;;;338917;156;857477;-66
2021/08/03 04:14:55;;;;;;;3.98;1.99;;;;;;;;;;337574;156;864945;-66
2021/08/03 04:15:57;;;;;;;3.46;2.21;;;;;;;;;;338258;158;857964;-65
2021/08/03 04:16:59;;;;;;;4.04;1.96;;;;;;;;;;338312;159;864827;-64
2021/08/03 04:18:01;;;;;;;6.79;2.69;;;;;;;;;;337632;157;864760;-69
2021/08/03 04:19:02;;;;;;;3.61;2.10;;;;;;;;;;339042;156;857293;-64
2021/08/03 04:20:04;;;;;;;4.30;2.02;;;;;;;;;;340056;156;857290;-65
2021/08/03 04:21:06;;;;;;;2.72;1.89;;;;;;;;;;340824;156;866435;-66
2021/08/03 04:22:07;;;;;;;3.34;1.91;;;;;;;;;;338924;156;857364;-66
2021/08/03 04:23:09;;;;;;;5.26;1.92;;;;;;;;;;338398;156;857315;-66
2021/08/03 04:24:10;;;;;;;2.20;1.79;;;;;;;;;;338143;159;857163;-65
2021/08/03 04:25:12;;;;;;;3.01;2.01;;;;;;;;;;338951;157;857346;-63
2021/08/03 04:26:15;;;;;;;3.01;1.98;;;;;;;;;;336890;157;857286;-64
2021/08/03 04:27:17;;;;;;;3.76;1.92;;;;;;;;;;336405;160;857457;-63
2021/08/03 04:28:19;;;;;;;2.37;2.10;;;;;;;;;;336139;159;857323;-64
2021/08/03 04:29:21;;;;;;;4.33;2.61;;;;;;;;;;338740;156;857253;-63
2021/08/03 04:30:22;;;;;;;3.71;1.96;;;;;;;;;;338310;156;857253;-65
2021/08/03 04:31:24;;;;;;;3.79;2.19;;;;;;;;;;338823;156;857296;-64
2021/08/03 04:32:26;;;;;;;3.86;2.06;;;;;;;;;;338375;156;858970;-66
2021/08/03 04:33:28;;;;;;;2.30;1.74;;;;;;;;;;338603;156;858147;-67
2021/08/03 04:34:31;;;;;;;4.26;2.25;;;;;;;;;;341534;156;857420;-66
2021/08/03 04:35:33;;;;;;;2.75;2.25;;;;;;;;;;339731;156;857926;-63
2021/08/03 04:36:35;;;;;;;2.39;1.79;;;;;;;;;;338879;156;858282;-62
2021/08/03 04:37:38;;;;;;;5.19;2.11;;;;;;;;;;344446;156;859101;-65
2021/08/03 04:38:39;;;;;;;4.69;2.37;;;;;;;;;;336325;158;864956;-64
2021/08/03 04:39:41;;;;;;;2.47;2.08;;;;;;;;;;334184;158;857303;-62
2021/08/03 04:40:43;;;;;;;2.39;1.99;;;;;;;;;;333568;158;857214;-65
2021/08/03 04:41:44;;;;;;;2.49;2.14;;;;;;;;;;336331;158;857342;-63
2021/08/03 04:42:46;;;;;;;4.59;2.19;;;;;;;;;;332574;159;857285;-63
2021/08/03 04:43:48;;;;;;;3.90;2.24;;;;;;;;;;332324;160;858908;-63
2021/08/03 04:44:50;;;;;;;3.43;2.29;;;;;;;;;;333797;160;858924;-63
2021/08/03 04:45:51;;;;;;;2.86;2.34;;;;;;;;;;334464;160;857205;-64
2021/08/03 04:46:53;;;;;;;4.49;2.42;;;;;;;;;;333240;159;857154;-62
2021/08/03 04:47:54;;;;;;;3.71;2.33;;;;;;;;;;334104;160;864758;-62
2021/08/03 04:48:56;;;;;;;7.56;2.44;;;;;;;;;;335833;158;857371;-64
2021/08/03 04:49:57;;;;;;;2.79;2.27;;;;;;;;;;333366;160;859092;-63
2021/08/03 04:51:01;;;;;;;4.20;2.42;;;;;;;;;;333546;159;859137;-62
2021/08/03 04:52:04;;;;;;;5.26;2.93;;;;;;;;;;334242;158;858756;-64
2021/08/03 04:53:06;;;;;;;3.12;2.46;;;;;;;;;;334796;158;857393;-64
2021/08/03 04:54:08;;;;;;;2.95;2.36;;;;;;;;;;333502;158;865618;-66
2021/08/03 04:55:10;;;;;;;3.61;2.47;;;;;;;;;;335275;158;858873;-66
2021/08/03 04:56:12;;;;;;;3.96;2.47;;;;;;;;;;334372;160;857679;-67
2021/08/03 04:57:14;;;;;;;5.06;2.51;;;;;;;;;;332187;158;865631;-61
2021/08/03 04:58:16;;;;;;;3.66;2.52;;;;;;;;;;332236;158;857423;-67
2021/08/03 04:59:19;;;;;;;3.19;2.59;;;;;;;;;;340221;158;866468;-67
2021/08/03 05:00:22;;;;;;;2.80;2.42;;;;;;;;;;336922;158;858710;-63
2021/08/03 05:01:24;;;;;;;2.48;2.27;;;;;;;;;;334799;158;857807;-61
2021/08/03 05:02:26;;;;;;;3.94;2.30;;;;;;;;;;328986;163;864846;-63
2021/08/03 05:03:27;;;;;;;3.48;2.72;;;;;;;;;;333370;160;857366;-60
2021/08/03 05:04:33;;;;;;;2.81;2.23;;;;;;;;;;333674;158;859093;-62
2021/08/03 05:05:32;;;;;;;3.92;2.67;;;;;;;;;;332558;159;859513;-61
2021/08/03 05:06:35;;;;;;;3.07;2.67;;;;;;;;;;330645;159;857361;-62
2021/08/03 05:07:37;;;;;;;4.30;2.70;;;;;;;;;;335493;158;858279;-61
2021/08/03 05:08:38;;;;;;;3.81;2.74;;;;;;;;;;335132;158;857474;-61
2021/08/03 05:09:40;;;;;;;3.19;2.83;;;;;;;;;;334703;158;859188;-60
2021/08/03 05:10:43;;;;;;;3.84;2.97;;;;;;;;;;330470;161;857212;-60
2021/08/03 05:11:45;;;;;;;5.05;2.55;;;;;;;;;;333376;159;857443;-62
2021/08/03 05:12:46;;;;;;;2.72;2.29;;;;;;;;;;336045;158;857168;-62
2021/08/03 05:13:48;;;;;;;4.85;2.71;;;;;;;;;;335148;158;858841;-62
2021/08/03 05:14:49;;;;;;;5.43;2.46;;;;;;;;;;332765;158;858978;-62
2021/08/03 05:15:51;;;;;;;5.02;2.63;;;;;;;;;;333387;159;859100;-62
2021/08/03 05:16:54;;;;;;;5.95;2.84;;;;;;;;;;334987;159;866571;-62
2021/08/03 05:17:56;;;;;;;2.89;2.59;;;;;;;;;;336397;158;857467;-62
2021/08/03 05:18:57;;;;;;;5.61;2.62;;;;;;;;;;335216;158;857331;-63
2021/08/03 05:19:59;;;;;;;3.17;2.31;;;;;;;;;;333013;158;865794;-61
2021/08/03 05:21:01;;;;;;;2.92;2.42;;;;;;;;;;330367;160;858244;-62
2021/08/03 05:22:02;;;;;;;3.13;2.64;;;;;;;;;;334917;160;858174;-62
2021/08/03 05:23:04;;;;;;;3.05;2.55;;;;;;;;;;333432;160;857781;-62
2021/08/03 05:24:06;;;;;;;3.39;2.96;;;;;;;;;;331824;160;865287;-62
2021/08/03 05:25:08;;;;;;;3.34;2.63;;;;;;;;;;333682;159;857325;-63
2021/08/03 05:26:10;;;;;;;3.25;2.95;;;;;;;;;;333565;159;857328;-63
2021/08/03 05:27:11;;;;;;;3.74;2.91;;;;;;;;;;333925;158;865569;-61
2021/08/03 05:28:13;;;;;;;4.95;2.64;;;;;;;;;;339370;158;857222;-62
2021/08/03 05:29:15;;;;;;;3.14;2.81;;;;;;;;;;333437;158;857224;-61
2021/08/03 05:30:17;;;;;;;3.00;2.63;;;;;;;;;;333585;158;857341;-60
2021/08/03 05:31:18;;;;;;;3.76;2.60;;;;;;;;;;333656;160;857829;-62
2021/08/03 05:32:20;;;;;;;4.15;2.52;;;;;;;;;;332803;158;859101;-60
2021/08/03 05:33:21;;;;;;;2.60;2.36;;;;;;;;;;334149;158;859609;-61
2021/08/03 05:34:23;;;;;;;3.31;2.91;;;;;;;;;;335053;158;859698;-59
2021/08/03 05:35:24;;;;;;;3.68;2.57;;;;;;;;;;336457;158;858558;-60
2021/08/03 05:36:27;;;;;;;6.11;2.53;;;;;;;;;;333595;158;858629;-58
2021/08/03 05:37:28;;;;;;;3.24;2.87;;;;;;;;;;335281;158;859095;-60
2021/08/03 05:38:30;;;;;;;2.61;2.41;;;;;;;;;;335400;158;857862;-59
2021/08/03 05:39:31;;;;;;;3.92;2.33;;;;;;;;;;338640;156;857508;-60
2021/08/03 05:40:33;;;;;;;3.17;2.85;;;;;;;;;;338751;156;857447;-60
2021/08/03 05:41:35;;;;;;;3.06;2.34;;;;;;;;;;341700;156;857885;-60
2021/08/03 05:42:37;;;;;;;4.91;2.60;;;;;;;;;;342009;156;857394;-60
2021/08/03 05:43:38;;;;;;;3.96;2.99;;;;;;;;;;337977;156;865003;-59
2021/08/03 05:44:40;;;;;;;2.83;2.29;;;;;;;;;;337897;156;857508;-58
2021/08/03 05:45:41;;;;;;;2.95;2.50;;;;;;;;;;337739;156;857430;-59
2021/08/03 05:46:43;;;;;;;4.27;2.85;;;;;;;;;;338631;156;858944;-59
2021/08/03 05:47:45;;;;;;;4.09;2.51;;;;;;;;;;336628;156;856524;-59
2021/08/03 05:48:47;;;;;;;4.93;2.92;;;;;;;;;;337950;158;857740;-61
2021/08/03 05:49:48;;;;;;;3.39;2.76;;;;;;;;;;339032;156;864802;-60
2021/08/03 05:50:50;;;;;;;4.91;2.65;;;;;;;;;;337872;156;857255;-60
2021/08/03 05:51:52;;;;;;;3.52;2.53;;;;;;;;;;339902;156;857331;-60
2021/08/03 05:52:53;;;;;;;6.61;2.67;;;;;;;;;;338460;159;857221;-60
2021/08/03 05:53:55;;;;;;;6.26;2.37;;;;;;;;;;341061;156;864868;-60
2021/08/03 05:54:56;;;;;;;5.09;3.19;;;;;;;;;;339346;156;857314;-60
2021/08/03 05:55:58;;;;;;;4.05;2.66;;;;;;;;;;338522;156;857345;-60
2021/08/03 05:56:59;;;;;;;3.13;2.65;;;;;;;;;;338879;156;857349;-60
2021/08/03 05:58:01;;;;;;;3.55;2.81;;;;;;;;;;339421;156;866624;-60
2021/08/03 05:59:03;;;;;;;5.11;2.84;;;;;;;;;;337777;156;859172;-60
2021/08/03 06:00:05;;;;;;;4.91;2.42;;;;;;;;;;339752;156;858131;-60
2021/08/03 06:01:07;;;;;;;4.73;2.59;;;;;;;;;;336800;156;858221;-60
2021/08/03 06:02:08;;;;;;;3.18;2.89;;;;;;;;;;338836;157;858579;-60
2021/08/03 06:03:10;;;;;;;4.24;3.17;;;;;;;;;;336201;158;857254;-60
2021/08/03 06:04:11;;;;;;;3.56;2.46;;;;;;;;;;335760;159;856232;-60
2021/08/03 06:05:13;;;;;;;3.09;2.55;;;;;;;;;;337785;158;863771;-60
2021/08/03 06:06:15;;;;;;;2.83;2.53;;;;;;;;;;337425;157;857371;-61
2021/08/03 06:07:17;;;;;;;2.95;2.59;;;;;;;;;;338107;159;857291;-60
2021/08/03 06:08:20;;;;;;;2.71;2.43;;;;;;;;;;338495;159;857278;-60
2021/08/03 06:09:23;;;;;;;2.58;2.38;;;;;;;;;;333572;159;857274;-60
2021/08/03 06:10:29;;;;;;;4.51;2.94;;;;;;;;;;336092;159;857311;-60